Current | Forecast
Updated: 12:00 AM +09 on January 18, 2018
Observed at Chita, Russia
Temperature -26°F
Humidity 76%
Dew Point -31°F
Wind North at 0 mph
Pressure 29.71 in (Steady)
Conditions Partly Cloudy
Visibility 3.1 miles
UV 0 out of 16
Clouds (FEW) : 300 ft
Yesterday's Maximum -6°F
Yesterday's Minimum -31°F approx.
Yesterday's Heating Degree Days 83 approx.
Sunrise8:26 AM +08
Sunset4:48 PM +08
Moon Rise8:18 AM +08
Moon Set5:05 PM +08
Moon PhaseMoon Phase
New Moon
Raw METARMETAR UIAA 171500Z 00000MPS 5000 BR FEW003 M32/M35 Q1006 R29/490155 NOSIG RMK QBB090 MT OBSC QFE697/0929


Monday
. High: 53° F.
Tuesday
. High: 51° F.
Wednesday
. High: 42° F.
Thursday
. High: 46° F.
Friday
. High: 50° F.
Saturday
. High: 51° F.
Sunday
. High: 55° F.
Monday
. High: 64° F.

Units: English | Metric

Find the Weather for any City, State or Zipcode, or Country:

U.S. State List | Severe Weather | Tropical Storms | Ski Conditions
United States | Canada | Central America | South America | Asia | Europe | Australia | Africa | Islands

Weather Underground

© Copyright 2018
The Weather Company, LLC